sensor_id;sensor_type;location;lat;lon;timestamp;temperature;humidity
1165;DHT22;571;50.930;6.926;2022-10-17T03:16:29;17.10;99.90
1165;DHT22;571;50.930;6.926;2022-10-17T03:18:57;17.10;99.90
1165;DHT22;571;50.930;6.926;2022-10-17T03:21:25;17.10;99.90
1165;DHT22;571;50.930;6.926;2022-10-17T03:23:52;17.10;99.90
1165;DHT22;571;50.930;6.926;2022-10-17T03:26:21;17.10;99.90
1165;DHT22;571;50.930;6.926;2022-10-17T03:28:51;17.10;99.90
1165;DHT22;571;50.930;6.926;2022-10-17T03:31:21;17.20;99.90
1165;DHT22;571;50.930;6.926;2022-10-17T03:34:00;17.10;99.90
1165;DHT22;571;50.930;6.926;2022-10-17T03:36:27;17.10;99.90
1165;DHT22;571;50.930;6.926;2022-10-17T03:41:32;17.10;99.90
1165;DHT22;571;50.930;6.926;2022-10-17T03:43:59;17.10;99.90
1165;DHT22;571;50.930;6.926;2022-10-17T03:46:26;17.10;99.90
1165;DHT22;571;50.930;6.926;2022-10-17T03:48:53;17.10;99.90
1165;DHT22;571;50.930;6.926;2022-10-17T03:51:20;17.00;99.90
1165;DHT22;571;50.930;6.926;2022-10-17T03:53:47;17.00;99.90
1165;DHT22;571;50.930;6.926;2022-10-17T03:56:15;17.00;99.90
1165;DHT22;571;50.930;6.926;2022-10-17T03:58:44;17.00;99.90
1165;DHT22;571;50.930;6.926;2022-10-17T04:01:12;16.90;99.90
1165;DHT22;571;50.930;6.926;2022-10-17T04:03:39;16.90;99.90
1165;DHT22;571;50.930;6.926;2022-10-17T04:06:06;16.90;99.90
1165;DHT22;571;50.930;6.926;2022-10-17T04:08:33;16.90;99.90
1165;DHT22;571;50.930;6.926;2022-10-17T04:11:01;16.80;99.90
1165;DHT22;571;50.930;6.926;2022-10-17T04:13:28;16.90;99.90
1165;DHT22;571;50.930;6.926;2022-10-17T04:15:58;16.90;99.90
1165;DHT22;571;50.930;6.926;2022-10-17T04:18:26;16.90;99.90
1165;DHT22;571;50.930;6.926;2022-10-17T04:20:53;17.00;99.90
1165;DHT22;571;50.930;6.926;2022-10-17T04:23:20;17.00;99.90
1165;DHT22;571;50.930;6.926;2022-10-17T04:25:47;17.00;99.90
1165;DHT22;571;50.930;6.926;2022-10-17T04:28:14;16.90;99.90
1165;DHT22;571;50.930;6.926;2022-10-17T04:30:41;16.90;99.90
1165;DHT22;571;50.930;6.926;2022-10-17T04:33:09;16.90;99.90
1165;DHT22;571;50.930;6.926;2022-10-17T04:35:36;17.00;99.90
1165;DHT22;571;50.930;6.926;2022-10-17T04:38:02;17.00;99.90
1165;DHT22;571;50.930;6.926;2022-10-17T04:40:29;16.90;99.90
1165;DHT22;571;50.930;6.926;2022-10-17T04:42:56;17.00;99.90
1165;DHT22;571;50.930;6.926;2022-10-17T04:45:22;17.00;99.90
1165;DHT22;571;50.930;6.926;2022-10-17T04:47:49;17.00;99.90
1165;DHT22;571;50.930;6.926;2022-10-17T04:50:17;16.90;99.90
1165;DHT22;571;50.930;6.926;2022-10-17T04:52:44;17.00;99.90
1165;DHT22;571;50.930;6.926;2022-10-17T04:55:10;17.00;99.90
1165;DHT22;571;50.930;6.926;2022-10-17T04:57:37;16.90;99.90
1165;DHT22;571;50.930;6.926;2022-10-17T05:00:04;16.90;99.90
1165;DHT22;571;50.930;6.926;2022-10-17T05:02:33;16.90;99.90
1165;DHT22;571;50.930;6.926;2022-10-17T05:05:00;16.90;99.90
1165;DHT22;571;50.930;6.926;2022-10-17T05:07:28;17.00;99.90
1165;DHT22;571;50.930;6.926;2022-10-17T05:09:55;16.90;99.90
1165;DHT22;571;50.930;6.926;2022-10-17T05:12:23;17.00;99.90
1165;DHT22;571;50.930;6.926;2022-10-17T05:14:49;17.00;99.90
1165;DHT22;571;50.930;6.926;2022-10-17T05:17:16;16.90;99.90
1165;DHT22;571;50.930;6.926;2022-10-17T05:19:43;17.00;99.90
1165;DHT22;571;50.930;6.926;2022-10-17T05:22:10;17.00;99.90
1165;DHT22;571;50.930;6.926;2022-10-17T05:24:38;17.00;99.90
1165;DHT22;571;50.930;6.926;2022-10-17T05:27:04;17.00;99.90
1165;DHT22;571;50.930;6.926;2022-10-17T05:29:31;16.90;99.90
1165;DHT22;571;50.930;6.926;2022-10-17T05:31:57;16.90;99.90
1165;DHT22;571;50.930;6.926;2022-10-17T05:34:24;16.90;99.90
1165;DHT22;571;50.930;6.926;2022-10-17T05:36:51;17.00;99.90
1165;DHT22;571;50.930;6.926;2022-10-17T05:39:18;17.10;99.90
1165;DHT22;571;50.930;6.926;2022-10-17T05:41:46;17.10;99.90
1165;DHT22;571;50.930;6.926;2022-10-17T05:44:13;17.10;99.90
1165;DHT22;571;50.930;6.926;2022-10-17T05:46:39;17.10;99.90
1165;DHT22;571;50.930;6.926;2022-10-17T05:49:08;17.00;99.90
1165;DHT22;571;50.930;6.926;2022-10-17T05:51:35;17.00;99.90
1165;DHT22;571;50.930;6.926;2022-10-17T05:54:04;17.10;99.90
1165;DHT22;571;50.930;6.926;2022-10-17T05:56:31;17.10;99.90
1165;DHT22;571;50.930;6.926;2022-10-17T05:58:59;17.00;99.90
1165;DHT22;571;50.930;6.926;2022-10-17T06:01:26;17.10;99.90
1165;DHT22;571;50.930;6.926;2022-10-17T06:03:53;17.00;99.90
1165;DHT22;571;50.930;6.926;2022-10-17T06:06:20;17.10;99.90
1165;DHT22;571;50.930;6.926;2022-10-17T06:08:46;17.10;99.90
1165;DHT22;571;50.930;6.926;2022-10-17T06:11:13;17.10;99.90
1165;DHT22;571;50.930;6.926;2022-10-17T06:13:40;17.10;99.90
1165;DHT22;571;50.930;6.926;2022-10-17T06:16:08;17.10;99.90
1165;DHT22;571;50.930;6.926;2022-10-17T06:18:35;17.10;99.90
1165;DHT22;571;50.930;6.926;2022-10-17T06:21:03;17.10;99.90
1165;DHT22;571;50.930;6.926;2022-10-17T06:23:30;17.20;99.90
1165;DHT22;571;50.930;6.926;2022-10-17T06:25:58;17.20;99.90
1165;DHT22;571;50.930;6.926;2022-10-17T06:28:25;17.20;99.90
1165;DHT22;571;50.930;6.926;2022-10-17T06:30:52;17.20;99.90
1165;DHT22;571;50.930;6.926;2022-10-17T06:33:20;17.30;99.90
1165;DHT22;571;50.930;6.926;2022-10-17T06:35:50;17.30;99.90
1165;DHT22;571;50.930;6.926;2022-10-17T06:38:17;17.30;99.90
1165;DHT22;571;50.930;6.926;2022-10-17T06:40:43;17.30;99.90
1165;DHT22;571;50.930;6.926;2022-10-17T06:43:10;17.40;99.90
1165;DHT22;571;50.930;6.926;2022-10-17T06:45:37;17.40;99.90
1165;DHT22;571;50.930;6.926;2022-10-17T06:48:05;17.40;99.90
1165;DHT22;571;50.930;6.926;2022-10-17T06:50:33;17.50;99.90
1165;DHT22;571;50.930;6.926;2022-10-17T06:53:00;17.50;99.90
1165;DHT22;571;50.930;6.926;2022-10-17T06:55:27;17.50;99.90
1165;DHT22;571;50.930;6.926;2022-10-17T06:57:53;17.60;99.90
1165;DHT22;571;50.930;6.926;2022-10-17T07:00:20;17.50;99.90
1165;DHT22;571;50.930;6.926;2022-10-17T07:02:48;17.60;99.90
1165;DHT22;571;50.930;6.926;2022-10-17T07:05:14;17.70;99.90
1165;DHT22;571;50.930;6.926;2022-10-17T07:07:45;17.70;99.90
1165;DHT22;571;50.930;6.926;2022-10-17T07:10:11;17.70;99.90
1165;DHT22;571;50.930;6.926;2022-10-17T07:12:38;17.80;99.90
1165;DHT22;571;50.930;6.926;2022-10-17T07:15:05;17.80;99.90
1165;DHT22;571;50.930;6.926;2022-10-17T07:17:32;17.90;99.90
1165;DHT22;571;50.930;6.926;2022-10-17T07:19:59;17.90;99.90
1165;DHT22;571;50.930;6.926;2022-10-17T07:22:25;17.90;99.90
1165;DHT22;571;50.930;6.926;2022-10-17T07:24:54;18.10;99.90
1165;DHT22;571;50.930;6.926;2022-10-17T07:27:20;18.10;99.90
1165;DHT22;571;50.930;6.926;2022-10-17T07:29:47;18.20;99.90
1165;DHT22;571;50.930;6.926;2022-10-17T07:32:14;18.20;99.90
1165;DHT22;571;50.930;6.926;2022-10-17T07:34:40;18.20;99.90
1165;DHT22;571;50.930;6.926;2022-10-17T07:37:07;18.20;99.90
1165;DHT22;571;50.930;6.926;2022-10-17T07:39:35;18.20;99.90
1165;DHT22;571;50.930;6.926;2022-10-17T07:42:04;18.20;99.90
1165;DHT22;571;50.930;6.926;2022-10-17T07:44:31;18.20;99.90
1165;DHT22;571;50.930;6.926;2022-10-17T07:46:59;18.30;99.90
1165;DHT22;571;50.930;6.926;2022-10-17T07:49:26;18.40;99.90
1165;DHT22;571;50.930;6.926;2022-10-17T07:51:53;18.40;99.90
1165;DHT22;571;50.930;6.926;2022-10-17T07:54:20;18.40;99.90
1165;DHT22;571;50.930;6.926;2022-10-17T07:56:47;18.50;99.90
1165;DHT22;571;50.930;6.926;2022-10-17T07:59:16;18.60;99.90
1165;DHT22;571;50.930;6.926;2022-10-17T08:01:43;18.60;99.90
1165;DHT22;571;50.930;6.926;2022-10-17T08:04:09;18.60;99.90
1165;DHT22;571;50.930;6.926;2022-10-17T08:06:36;18.60;99.90
1165;DHT22;571;50.930;6.926;2022-10-17T08:09:03;18.60;99.90
1165;DHT22;571;50.930;6.926;2022-10-17T08:11:30;18.70;99.90
1165;DHT22;571;50.930;6.926;2022-10-17T08:13:57;18.70;99.90
1165;DHT22;571;50.930;6.926;2022-10-17T08:16:25;18.70;99.90
1165;DHT22;571;50.930;6.926;2022-10-17T08:18:53;18.70;99.90
1165;DHT22;571;50.930;6.926;2022-10-17T08:21:20;18.80;99.90
1165;DHT22;571;50.930;6.926;2022-10-17T08:23:46;18.90;99.90
1165;DHT22;571;50.930;6.926;2022-10-17T08:26:17;18.90;99.90
1165;DHT22;571;50.930;6.926;2022-10-17T08:28:45;18.90;99.90
1165;DHT22;571;50.930;6.926;2022-10-17T08:31:13;19.00;99.90
1165;DHT22;571;50.930;6.926;2022-10-17T08:33:42;19.00;99.90
1165;DHT22;571;50.930;6.926;2022-10-17T08:36:09;19.00;99.90
1165;DHT22;571;50.930;6.926;2022-10-17T08:38:37;19.10;99.90
1165;DHT22;571;50.930;6.926;2022-10-17T08:41:13;19.10;99.90
1165;DHT22;571;50.930;6.926;2022-10-17T08:43:56;19.20;99.90
1165;DHT22;571;50.930;6.926;2022-10-17T08:46:28;19.20;99.90
1165;DHT22;571;50.930;6.926;2022-10-17T08:48:59;19.30;99.90
1165;DHT22;571;50.930;6.926;2022-10-17T08:51:30;19.40;99.90
1165;DHT22;571;50.930;6.926;2022-10-17T08:54:04;19.40;99.90
1165;DHT22;571;50.930;6.926;2022-10-17T08:56:36;19.50;99.90
1165;DHT22;571;50.930;6.926;2022-10-17T08:59:04;19.50;99.90
1165;DHT22;571;50.930;6.926;2022-10-17T09:01:33;19.60;99.90
1165;DHT22;571;50.930;6.926;2022-10-17T09:07:14;19.60;99.90
1165;DHT22;571;50.930;6.926;2022-10-17T09:09:51;19.70;99.90
1165;DHT22;571;50.930;6.926;2022-10-17T09:12:22;19.80;99.90
1165;DHT22;571;50.930;6.926;2022-10-17T09:15:02;19.90;99.90
1165;DHT22;571;50.930;6.926;2022-10-17T09:17:42;19.90;99.90
1165;DHT22;571;50.930;6.926;2022-10-17T09:20:18;20.00;99.90
1165;DHT22;571;50.930;6.926;2022-10-17T09:22:50;19.90;99.90
1165;DHT22;571;50.930;6.926;2022-10-17T09:25:18;19.90;99.90
1165;DHT22;571;50.930;6.926;2022-10-17T09:27:48;20.00;99.90
1165;DHT22;571;50.930;6.926;2022-10-17T09:30:25;20.00;99.90
1165;DHT22;571;50.930;6.926;2022-10-17T09:32:54;20.00;99.90
1165;DHT22;571;50.930;6.926;2022-10-17T09:35:22;20.10;99.90
1165;DHT22;571;50.930;6.926;2022-10-17T09:37:50;20.10;99.90
1165;DHT22;571;50.930;6.926;2022-10-17T10:29:27;21.50;99.90
1165;DHT22;571;50.930;6.926;2022-10-17T10:31:56;21.40;99.80
1165;DHT22;571;50.930;6.926;2022-10-17T10:34:26;21.50;99.90
1165;DHT22;571;50.930;6.926;2022-10-17T10:37:00;21.50;99.60
1165;DHT22;571;50.930;6.926;2022-10-17T10:39:35;21.50;99.90
1165;DHT22;571;50.930;6.926;2022-10-17T10:42:15;21.60;99.80
1165;DHT22;571;50.930;6.926;2022-10-17T10:44:45;21.60;99.60
1165;DHT22;571;50.930;6.926;2022-10-17T10:47:19;21.70;99.50
1165;DHT22;571;50.930;6.926;2022-10-17T10:49:46;21.70;99.50
1165;DHT22;571;50.930;6.926;2022-10-17T10:52:24;21.70;99.50
1165;DHT22;571;50.930;6.926;2022-10-17T10:55:02;21.70;99.20
1165;DHT22;571;50.930;6.926;2022-10-17T10:57:32;21.70;99.40
1165;DHT22;571;50.930;6.926;2022-10-17T11:00:07;21.70;99.40
1165;DHT22;571;50.930;6.926;2022-10-17T11:02:44;21.70;99.30
1165;DHT22;571;50.930;6.926;2022-10-17T11:05:16;21.70;99.20
1165;DHT22;571;50.930;6.926;2022-10-17T11:07:49;21.70;99.30
1165;DHT22;571;50.930;6.926;2022-10-17T11:10:22;21.70;99.40
1165;DHT22;571;50.930;6.926;2022-10-17T11:12:56;21.70;99.50
1165;DHT22;571;50.930;6.926;2022-10-17T11:15:28;21.60;99.70
1165;DHT22;571;50.930;6.926;2022-10-17T11:17:58;21.60;99.40
1165;DHT22;571;50.930;6.926;2022-10-17T11:42:23;21.80;99.90
1165;DHT22;571;50.930;6.926;2022-10-17T11:45:08;21.80;99.90
1165;DHT22;571;50.930;6.926;2022-10-17T11:47:45;21.80;99.90
1165;DHT22;571;50.930;6.926;2022-10-17T11:50:22;21.90;99.80
1165;DHT22;571;50.930;6.926;2022-10-17T11:52:59;21.90;99.90
1165;DHT22;571;50.930;6.926;2022-10-17T11:55:30;21.90;99.90
1165;DHT22;571;50.930;6.926;2022-10-17T11:58:13;21.90;99.90
1165;DHT22;571;50.930;6.926;2022-10-17T12:00:53;22.00;99.90
1165;DHT22;571;50.930;6.926;2022-10-17T12:03:28;21.90;99.80
1165;DHT22;571;50.930;6.926;2022-10-17T12:06:03;21.90;99.90
1165;DHT22;571;50.930;6.926;2022-10-17T12:08:40;21.90;99.90
1165;DHT22;571;50.930;6.926;2022-10-17T12:11:15;21.90;99.90
1165;DHT22;571;50.930;6.926;2022-10-17T12:13:49;21.90;99.80
1165;DHT22;571;50.930;6.926;2022-10-17T12:16:44;21.80;99.80
1165;DHT22;571;50.930;6.926;2022-10-17T12:19:32;21.80;99.90
1165;DHT22;571;50.930;6.926;2022-10-17T12:22:11;21.80;99.90
1165;DHT22;571;50.930;6.926;2022-10-17T12:24:53;21.80;99.90
1165;DHT22;571;50.930;6.926;2022-10-17T12:27:41;21.80;99.90
1165;DHT22;571;50.930;6.926;2022-10-17T12:30:35;21.80;99.80
1165;DHT22;571;50.930;6.926;2022-10-17T12:33:20;21.90;99.80
1165;DHT22;571;50.930;6.926;2022-10-17T12:39:43;21.90;99.70
1165;DHT22;571;50.930;6.926;2022-10-17T12:42:47;21.80;99.90
1165;DHT22;571;50.930;6.926;2022-10-17T12:45:49;21.80;99.70
1165;DHT22;571;50.930;6.926;2022-10-17T12:58:17;21.80;99.80
1165;DHT22;571;50.930;6.926;2022-10-17T13:01:08;21.80;99.90
1165;DHT22;571;50.930;6.926;2022-10-17T13:06:47;21.80;99.90
1165;DHT22;571;50.930;6.926;2022-10-17T13:09:25;21.80;99.80
1165;DHT22;571;50.930;6.926;2022-10-17T13:12:11;21.80;99.90
1165;DHT22;571;50.930;6.926;2022-10-17T13:14:49;21.80;99.90
1165;DHT22;571;50.930;6.926;2022-10-17T13:17:25;21.80;99.90
1165;DHT22;571;50.930;6.926;2022-10-17T13:23:22;21.80;99.90
1165;DHT22;571;50.930;6.926;2022-10-17T13:26:13;21.90;99.90
1165;DHT22;571;50.930;6.926;2022-10-17T13:29:09;21.80;99.90
1165;DHT22;571;50.930;6.926;2022-10-17T13:32:00;21.80;99.90
1165;DHT22;571;50.930;6.926;2022-10-17T13:35:14;21.70;99.90
1165;DHT22;571;50.930;6.926;2022-10-17T13:37:48;21.70;99.90
1165;DHT22;571;50.930;6.926;2022-10-17T13:40:33;21.70;99.90
1165;DHT22;571;50.930;6.926;2022-10-17T13:43:18;21.70;99.90
1165;DHT22;571;50.930;6.926;2022-10-17T13:45:54;21.70;99.90
1165;DHT22;571;50.930;6.926;2022-10-17T13:48:37;21.70;99.90
1165;DHT22;571;50.930;6.926;2022-10-17T13:51:31;21.70;99.90
1165;DHT22;571;50.930;6.926;2022-10-17T13:54:17;21.70;99.90
1165;DHT22;571;50.930;6.926;2022-10-17T13:56:48;21.70;99.90
1165;DHT22;571;50.930;6.926;2022-10-17T13:59:36;21.80;99.90
1165;DHT22;571;50.930;6.926;2022-10-17T14:02:20;21.80;99.90
1165;DHT22;571;50.930;6.926;2022-10-17T14:05:12;21.70;99.90
1165;DHT22;571;50.930;6.926;2022-10-17T14:08:00;21.90;99.90
1165;DHT22;571;50.930;6.926;2022-10-17T14:10:38;22.00;99.90
1165;DHT22;571;50.930;6.926;2022-10-17T14:13:21;22.00;99.90
1165;DHT22;571;50.930;6.926;2022-10-17T14:16:14;22.00;99.80
1165;DHT22;571;50.930;6.926;2022-10-17T14:19:05;22.10;99.80
1165;DHT22;571;50.930;6.926;2022-10-17T14:22:16;22.20;99.70
1165;DHT22;571;50.930;6.926;2022-10-17T14:28:12;22.20;99.50
1165;DHT22;571;50.930;6.926;2022-10-17T14:30:51;22.20;99.50
1165;DHT22;571;50.930;6.926;2022-10-17T14:33:43;22.30;99.50
1165;DHT22;571;50.930;6.926;2022-10-17T14:36:11;22.20;99.20
1165;DHT22;571;50.930;6.926;2022-10-17T14:38:43;22.20;99.10
1165;DHT22;571;50.930;6.926;2022-10-17T14:41:15;22.20;98.80
1165;DHT22;571;50.930;6.926;2022-10-17T14:43:52;22.10;98.80
1165;DHT22;571;50.930;6.926;2022-10-17T14:46:19;22.20;98.90
1165;DHT22;571;50.930;6.926;2022-10-17T14:48:51;22.10;98.80
1165;DHT22;571;50.930;6.926;2022-10-17T14:51:19;22.10;98.70
1165;DHT22;571;50.930;6.926;2022-10-17T14:53:59;22.00;99.00
1165;DHT22;571;50.930;6.926;2022-10-17T14:56:37;22.00;99.00
1165;DHT22;571;50.930;6.926;2022-10-17T14:59:05;22.00;98.80
1165;DHT22;571;50.930;6.926;2022-10-17T15:01:32;21.90;98.60
1165;DHT22;571;50.930;6.926;2022-10-17T15:03:59;21.90;99.00
1165;DHT22;571;50.930;6.926;2022-10-17T15:06:28;21.90;99.20
1165;DHT22;571;50.930;6.926;2022-10-17T15:08:55;21.90;99.20
1165;DHT22;571;50.930;6.926;2022-10-17T15:11:22;21.90;99.40
1165;DHT22;571;50.930;6.926;2022-10-17T15:13:50;21.90;99.10
1165;DHT22;571;50.930;6.926;2022-10-17T15:16:19;21.90;99.20
1165;DHT22;571;50.930;6.926;2022-10-17T15:18:46;22.00;99.30
1165;DHT22;571;50.930;6.926;2022-10-17T15:21:17;22.00;99.20
1165;DHT22;571;50.930;6.926;2022-10-17T15:23:45;21.90;99.40
1165;DHT22;571;50.930;6.926;2022-10-17T15:26:16;21.90;99.10
1165;DHT22;571;50.930;6.926;2022-10-17T15:28:44;21.90;99.20
1165;DHT22;571;50.930;6.926;2022-10-17T15:31:14;21.90;99.30
1165;DHT22;571;50.930;6.926;2022-10-17T15:33:42;21.80;99.40
1165;DHT22;571;50.930;6.926;2022-10-17T15:36:23;21.80;99.40
1165;DHT22;571;50.930;6.926;2022-10-17T15:38:52;21.80;99.30
1165;DHT22;571;50.930;6.926;2022-10-17T15:41:20;21.80;99.30
1165;DHT22;571;50.930;6.926;2022-10-17T15:43:47;21.70;99.40
1165;DHT22;571;50.930;6.926;2022-10-17T15:46:17;21.70;99.60
1165;DHT22;571;50.930;6.926;2022-10-17T15:48:44;21.60;99.70
1165;DHT22;571;50.930;6.926;2022-10-17T15:51:11;21.60;99.90
1165;DHT22;571;50.930;6.926;2022-10-17T15:53:38;21.50;99.90
1165;DHT22;571;50.930;6.926;2022-10-17T15:56:05;21.50;99.90
1165;DHT22;571;50.930;6.926;2022-10-17T15:58:35;21.50;99.90
1165;DHT22;571;50.930;6.926;2022-10-17T16:01:04;21.40;99.90
1165;DHT22;571;50.930;6.926;2022-10-17T16:03:33;21.40;99.90
1165;DHT22;571;50.930;6.926;2022-10-17T16:05:59;21.40;99.70
1165;DHT22;571;50.930;6.926;2022-10-17T16:08:26;21.40;99.80
1165;DHT22;571;50.930;6.926;2022-10-17T16:11:04;21.30;99.70
1165;DHT22;571;50.930;6.926;2022-10-17T16:13:36;21.30;99.90
1165;DHT22;571;50.930;6.926;2022-10-17T16:16:15;21.30;99.90
1165;DHT22;571;50.930;6.926;2022-10-17T16:18:47;21.30;99.90
1165;DHT22;571;50.930;6.926;2022-10-17T16:21:25;21.30;99.90
1165;DHT22;571;50.930;6.926;2022-10-17T16:23:55;21.20;99.90
1165;DHT22;571;50.930;6.926;2022-10-17T16:26:22;21.20;99.90
1165;DHT22;571;50.930;6.926;2022-10-17T16:28:50;21.20;99.90
1165;DHT22;571;50.930;6.926;2022-10-17T16:31:20;21.10;99.90
1165;DHT22;571;50.930;6.926;2022-10-17T16:33:54;21.00;99.90
1165;DHT22;571;50.930;6.926;2022-10-17T16:36:21;20.90;99.90
1165;DHT22;571;50.930;6.926;2022-10-17T16:38:48;20.80;99.90
1165;DHT22;571;50.930;6.926;2022-10-17T16:41:21;20.70;99.90
1165;DHT22;571;50.930;6.926;2022-10-17T16:43:49;20.70;99.90
1165;DHT22;571;50.930;6.926;2022-10-17T16:46:16;20.70;99.90
1165;DHT22;571;50.930;6.926;2022-10-17T16:48:44;20.60;99.90
1165;DHT22;571;50.930;6.926;2022-10-17T16:51:13;20.60;99.90
1165;DHT22;571;50.930;6.926;2022-10-17T16:53:40;20.50;99.90
1165;DHT22;571;50.930;6.926;2022-10-17T16:56:10;20.50;99.90
1165;DHT22;571;50.930;6.926;2022-10-17T16:58:37;20.40;99.90
1165;DHT22;571;50.930;6.926;2022-10-17T17:01:06;20.30;99.90
1165;DHT22;571;50.930;6.926;2022-10-17T17:03:34;20.40;99.90
1165;DHT22;571;50.930;6.926;2022-10-17T17:06:01;20.30;99.90
1165;DHT22;571;50.930;6.926;2022-10-17T17:08:29;20.20;99.90
1165;DHT22;571;50.930;6.926;2022-10-17T17:10:59;20.20;99.90
1165;DHT22;571;50.930;6.926;2022-10-17T17:13:27;20.20;99.90
1165;DHT22;571;50.930;6.926;2022-10-17T17:16:01;20.10;99.90
1165;DHT22;571;50.930;6.926;2022-10-17T17:18:28;20.10;99.90
1165;DHT22;571;50.930;6.926;2022-10-17T17:20:57;20.00;99.90
1165;DHT22;571;50.930;6.926;2022-10-17T17:23:24;20.00;99.90
1165;DHT22;571;50.930;6.926;2022-10-17T17:25:57;19.90;99.90
1165;DHT22;571;50.930;6.926;2022-10-17T17:28:24;20.00;99.90
1165;DHT22;571;50.930;6.926;2022-10-17T17:30:51;19.90;99.90
1165;DHT22;571;50.930;6.926;2022-10-17T17:33:18;19.80;99.90
1165;DHT22;571;50.930;6.926;2022-10-17T17:35:45;19.70;99.90
1165;DHT22;571;50.930;6.926;2022-10-17T17:38:12;19.70;99.90
1165;DHT22;571;50.930;6.926;2022-10-17T17:40:43;19.70;99.90
1165;DHT22;571;50.930;6.926;2022-10-17T17:43:11;19.60;99.90
1165;DHT22;571;50.930;6.926;2022-10-17T17:45:38;19.60;99.90
1165;DHT22;571;50.930;6.926;2022-10-17T17:48:05;19.60;99.90
1165;DHT22;571;50.930;6.926;2022-10-17T17:50:35;19.50;99.90
1165;DHT22;571;50.930;6.926;2022-10-17T17:53:02;19.50;99.90
1165;DHT22;571;50.930;6.926;2022-10-17T17:55:44;19.50;99.90
1165;DHT22;571;50.930;6.926;2022-10-17T17:58:19;19.40;99.90
1165;DHT22;571;50.930;6.926;2022-10-17T18:00:48;19.40;99.90
1165;DHT22;571;50.930;6.926;2022-10-17T18:03:16;19.50;99.90
1165;DHT22;571;50.930;6.926;2022-10-17T18:05:44;19.30;99.90
1165;DHT22;571;50.930;6.926;2022-10-17T18:08:20;19.30;99.90
1165;DHT22;571;50.930;6.926;2022-10-17T18:10:52;19.30;99.90
1165;DHT22;571;50.930;6.926;2022-10-17T18:13:31;19.30;99.90
1165;DHT22;571;50.930;6.926;2022-10-17T18:16:05;19.20;99.90
1165;DHT22;571;50.930;6.926;2022-10-17T18:18:38;19.30;99.90
1165;DHT22;571;50.930;6.926;2022-10-17T18:21:09;19.30;99.90
1165;DHT22;571;50.930;6.926;2022-10-17T18:23:40;19.30;99.90
1165;DHT22;571;50.930;6.926;2022-10-17T18:26:11;19.30;99.90
1165;DHT22;571;50.930;6.926;2022-10-17T18:28:41;19.30;99.90
1165;DHT22;571;50.930;6.926;2022-10-17T18:31:10;19.30;99.90
1165;DHT22;571;50.930;6.926;2022-10-17T18:33:41;19.10;99.90
1165;DHT22;571;50.930;6.926;2022-10-17T18:36:13;19.30;99.90
1165;DHT22;571;50.930;6.926;2022-10-17T18:38:42;19.30;99.90
1165;DHT22;571;50.930;6.926;2022-10-17T18:41:11;19.30;99.90
1165;DHT22;571;50.930;6.926;2022-10-17T18:43:43;19.30;99.90
1165;DHT22;571;50.930;6.926;2022-10-17T18:46:14;19.30;99.90
1165;DHT22;571;50.930;6.926;2022-10-17T18:48:48;19.30;99.90
1165;DHT22;571;50.930;6.926;2022-10-17T18:51:27;19.20;99.90
1165;DHT22;571;50.930;6.926;2022-10-17T18:53:55;19.10;99.90
1165;DHT22;571;50.930;6.926;2022-10-17T18:56:25;19.00;99.90
1165;DHT22;571;50.930;6.926;2022-10-17T18:59:02;18.90;99.90
1165;DHT22;571;50.930;6.926;2022-10-17T19:01:29;19.00;99.90
1165;DHT22;571;50.930;6.926;2022-10-17T19:03:57;19.00;99.90
1165;DHT22;571;50.930;6.926;2022-10-17T19:06:25;18.90;99.90
1165;DHT22;571;50.930;6.926;2022-10-17T19:08:53;18.90;99.90
1165;DHT22;571;50.930;6.926;2022-10-17T19:11:22;18.90;99.90
1165;DHT22;571;50.930;6.926;2022-10-17T19:13:50;18.90;99.90
1165;DHT22;571;50.930;6.926;2022-10-17T19:16:20;18.90;99.90
1165;DHT22;571;50.930;6.926;2022-10-17T19:18:52;18.90;99.90
1165;DHT22;571;50.930;6.926;2022-10-17T19:21:20;18.80;99.90
1165;DHT22;571;50.930;6.926;2022-10-17T19:23:51;18.90;99.90
1165;DHT22;571;50.930;6.926;2022-10-17T19:26:19;19.00;99.90
1165;DHT22;571;50.930;6.926;2022-10-17T19:28:47;18.90;99.90
1165;DHT22;571;50.930;6.926;2022-10-17T19:31:18;18.90;99.90
1165;DHT22;571;50.930;6.926;2022-10-17T19:33:45;19.00;99.90
1165;DHT22;571;50.930;6.926;2022-10-17T19:36:14;18.80;99.90
1165;DHT22;571;50.930;6.926;2022-10-17T19:38:46;18.70;99.90
1165;DHT22;571;50.930;6.926;2022-10-17T19:41:18;18.60;99.90
1165;DHT22;571;50.930;6.926;2022-10-17T19:43:48;18.60;99.90
1165;DHT22;571;50.930;6.926;2022-10-17T19:46:16;18.50;99.90
1165;DHT22;571;50.930;6.926;2022-10-17T19:48:45;18.60;99.90
1165;DHT22;571;50.930;6.926;2022-10-17T19:51:13;18.50;99.90
1165;DHT22;571;50.930;6.926;2022-10-17T19:53:40;18.50;99.90
1165;DHT22;571;50.930;6.926;2022-10-17T19:56:07;18.40;99.90
1165;DHT22;571;50.930;6.926;2022-10-17T19:58:35;18.40;99.90
1165;DHT22;571;50.930;6.926;2022-10-17T20:01:10;18.30;99.90
1165;DHT22;571;50.930;6.926;2022-10-17T20:03:37;18.20;99.90
1165;DHT22;571;50.930;6.926;2022-10-17T20:06:05;18.20;99.90
1165;DHT22;571;50.930;6.926;2022-10-17T20:08:32;18.10;99.90
1165;DHT22;571;50.930;6.926;2022-10-17T20:11:02;18.10;99.90
1165;DHT22;571;50.930;6.926;2022-10-17T20:13:29;18.00;99.90
1165;DHT22;571;50.930;6.926;2022-10-17T20:15:56;18.00;99.90
1165;DHT22;571;50.930;6.926;2022-10-17T20:18:24;18.00;99.90
1165;DHT22;571;50.930;6.926;2022-10-17T20:20:51;18.00;99.90
1165;DHT22;571;50.930;6.926;2022-10-17T20:23:19;17.90;99.90
1165;DHT22;571;50.930;6.926;2022-10-17T20:25:47;17.90;99.90
1165;DHT22;571;50.930;6.926;2022-10-17T20:28:13;17.90;99.90
1165;DHT22;571;50.930;6.926;2022-10-17T20:30:43;17.90;99.90
1165;DHT22;571;50.930;6.926;2022-10-17T20:33:10;17.80;99.90
1165;DHT22;571;50.930;6.926;2022-10-17T20:35:43;17.80;99.90
1165;DHT22;571;50.930;6.926;2022-10-17T20:38:11;17.80;99.90
1165;DHT22;571;50.930;6.926;2022-10-17T20:40:42;17.80;99.90
1165;DHT22;571;50.930;6.926;2022-10-17T20:43:11;17.70;99.90
1165;DHT22;571;50.930;6.926;2022-10-17T20:45:40;17.70;99.90
1165;DHT22;571;50.930;6.926;2022-10-17T20:51:22;17.60;99.90
1165;DHT22;571;50.930;6.926;2022-10-17T20:54:39;17.60;99.90
1165;DHT22;571;50.930;6.926;2022-10-17T20:57:22;17.60;99.90
1165;DHT22;571;50.930;6.926;2022-10-17T21:00:01;17.60;99.90
1165;DHT22;571;50.930;6.926;2022-10-17T21:05:33;17.60;99.90
1165;DHT22;571;50.930;6.926;2022-10-17T21:08:18;17.50;99.90
1165;DHT22;571;50.930;6.926;2022-10-17T21:17:52;17.40;99.90
1165;DHT22;571;50.930;6.926;2022-10-17T21:20:23;17.30;99.90
1165;DHT22;571;50.930;6.926;2022-10-17T21:23:11;17.30;99.90
1165;DHT22;571;50.930;6.926;2022-10-17T21:26:17;17.20;99.90
1165;DHT22;571;50.930;6.926;2022-10-17T21:28:57;17.20;99.90
1165;DHT22;571;50.930;6.926;2022-10-17T21:34:25;17.20;99.90
1165;DHT22;571;50.930;6.926;2022-10-17T21:36:59;17.20;99.90
1165;DHT22;571;50.930;6.926;2022-10-17T21:40:11;17.10;99.90
1165;DHT22;571;50.930;6.926;2022-10-17T21:42:55;17.10;99.90
1165;DHT22;571;50.930;6.926;2022-10-17T21:45:44;17.10;99.90
1165;DHT22;571;50.930;6.926;2022-10-17T21:48:30;17.10;99.90
1165;DHT22;571;50.930;6.926;2022-10-17T21:51:10;17.10;99.90
1165;DHT22;571;50.930;6.926;2022-10-17T21:53:38;17.20;99.90
1165;DHT22;571;50.930;6.926;2022-10-17T21:56:15;17.30;99.90
1165;DHT22;571;50.930;6.926;2022-10-17T21:58:59;17.20;99.90
